Espaço - Ciências - Fenômenos Naturais
Meteógrafos Informações Meteorológicas em tempo real

Aeroporto Santos Dumont

Histórico do Tempo
Temperatura atual: 23 graus 73 F    Umidade relativa: 94 %
Velocidade do vento: 05 nós 9 Km/h    Direção: 010 graus N
Ajuste do altímetro ..: 1012 HPA
Visibilidade: Regular    Tempo presente: Névoa úmida

Observação
Poucas nuvens a 700 Pés.

Data Hora BRTTempo°CUmidadePressãoVentoVisib.
24/05 - 08:56   Névoa úmida 23° 94% 1012 Norte/9 km/h 5000
24/05 - 07:56   Névoa úmida 23° 94% 1011 Norte-nordeste/10 km/h 5000
24/05 - 06:56   Névoa úmida 23° 94% 1011 Norte/9 km/h 5000
24/05 - 05:56   Névoa úmida 23° 94% 1011 Norte-noroeste/9 km/h 4500
24/05 - 04:56   Névoa úmida 24° 88% 1011 Norte-noroeste/5 km/h 4000
24/05 - 03:56   Névoa úmida 24° 88% 1012 Norte-nordeste/3 km/h 4000
24/05 - 02:56   Névoa úmida 24° 88% 1012 Norte-nordeste/5 km/h 5000
24/05 - 01:56   Quase sem nuvens 24° 94% 1012 Este-sudeste/5 km/h 6000
24/05 - 00:56   Quase sem nuvens 24° 94% 1013 Oeste-noroeste/1 km/h 8000
23/05 - 23:56   Céu Limpo 25° 94% 1013 Norte-nordeste/3 km/h OK
23/05 - 22:56   Céu Limpo 25° 88% 1013 Este-sudeste/3 km/h OK
23/05 - 21:56   Céu Limpo 24° 83% 1013 Sul/3 km/h OK
23/05 - 20:56   Céu Limpo 25° 78% 1013 Sul-sudoeste/10 km/h OK
23/05 - 19:56   Céu Limpo 24° 88% 1012 Sul/10 km/h OK
23/05 - 18:56   Céu Limpo 25° 88% 1012 Sul/14 km/h OK
23/05 - 17:56   Céu Limpo 25° 88% 1011 Sul/12 km/h OK
23/05 - 16:56   Céu Limpo 27° 78% 1011 Sul-sudeste/18 km/h OK
23/05 - 15:56   Céu Limpo 28° 79% 1011 Sul-sudeste/21 km/h OK
23/05 - 14:56   Céu Limpo 30° 58% 1011 Este-nordeste/5 km/h OK
23/05 - 13:56   Quase sem nuvens 30° 51% 1012 Noroeste/5 km/h 6000
23/05 - 12:56   Não Disponível 28° 70% 1013 Norte-noroeste/5 km/h 6000
23/05 - 11:56   Névoa seca 27° 78% 1013 Norte-noroeste/9 km/h 5000
23/05 - 10:56   Névoa úmida 24° 94% 1014 Norte/10 km/h 3000
23/05 - 09:56   Névoa úmida 23° 100% 1014 Norte-nordeste/10 km/h 3000


Apolo11.com - Todos os direitos reservados - 2000 - 2019
Política de Privacidade   |     Termo de Uso e Licenciamento   |  -   Entre em Contato

"Política é a guerra sem sangue enquanto a guerra é a política com sangue" - Mao Tsé-Tung